sensor_id;sensor_type;location;lat;lon;timestamp;P1;durP1;ratioP1;P2;durP2;ratioP2
57395;SDS011;43222;52.912;6.940;2022-11-23T00:01:19;33.30;;;22.65;;
57395;SDS011;43222;52.912;6.940;2022-11-23T00:03:46;27.83;;;20.58;;
57395;SDS011;43222;52.912;6.940;2022-11-23T00:06:13;30.15;;;22.33;;
57395;SDS011;43222;52.912;6.940;2022-11-23T00:08:39;29.58;;;22.77;;
57395;SDS011;43222;52.912;6.940;2022-11-23T00:11:05;31.10;;;21.83;;
57395;SDS011;43222;52.912;6.940;2022-11-23T00:13:32;31.52;;;22.33;;
57395;SDS011;43222;52.912;6.940;2022-11-23T00:15:59;30.92;;;22.58;;
57395;SDS011;43222;52.912;6.940;2022-11-23T00:18:26;27.10;;;22.30;;
57395;SDS011;43222;52.912;6.940;2022-11-23T00:20:52;29.05;;;21.27;;
57395;SDS011;43222;52.912;6.940;2022-11-23T00:23:18;30.63;;;22.23;;
57395;SDS011;43222;52.912;6.940;2022-11-23T00:25:44;33.28;;;22.98;;
57395;SDS011;43222;52.912;6.940;2022-11-23T00:28:10;29.27;;;21.20;;
57395;SDS011;43222;52.912;6.940;2022-11-23T00:30:36;31.88;;;21.77;;
57395;SDS011;43222;52.912;6.940;2022-11-23T00:33:02;30.77;;;22.25;;
57395;SDS011;43222;52.912;6.940;2022-11-23T00:35:29;28.77;;;21.42;;
57395;SDS011;43222;52.912;6.940;2022-11-23T00:37:55;30.38;;;21.00;;
57395;SDS011;43222;52.912;6.940;2022-11-23T00:40:21;26.02;;;20.88;;
57395;SDS011;43222;52.912;6.940;2022-11-23T00:42:47;31.42;;;21.55;;
57395;SDS011;43222;52.912;6.940;2022-11-23T00:45:13;26.80;;;20.85;;
57395;SDS011;43222;52.912;6.940;2022-11-23T00:47:39;25.55;;;20.73;;
57395;SDS011;43222;52.912;6.940;2022-11-23T00:50:05;28.30;;;20.80;;
57395;SDS011;43222;52.912;6.940;2022-11-23T00:52:31;29.00;;;21.05;;
57395;SDS011;43222;52.912;6.940;2022-11-23T00:54:57;26.25;;;19.67;;
57395;SDS011;43222;52.912;6.940;2022-11-23T00:57:23;30.02;;;20.90;;
57395;SDS011;43222;52.912;6.940;2022-11-23T00:59:49;32.33;;;21.13;;
57395;SDS011;43222;52.912;6.940;2022-11-23T01:02:15;29.98;;;20.88;;
57395;SDS011;43222;52.912;6.940;2022-11-23T01:04:41;32.25;;;21.13;;
57395;SDS011;43222;52.912;6.940;2022-11-23T01:07:07;28.13;;;20.08;;
57395;SDS011;43222;52.912;6.940;2022-11-23T01:09:33;26.90;;;20.52;;
57395;SDS011;43222;52.912;6.940;2022-11-23T01:11:59;32.88;;;20.70;;
57395;SDS011;43222;52.912;6.940;2022-11-23T01:14:25;31.55;;;21.67;;
57395;SDS011;43222;52.912;6.940;2022-11-23T01:16:51;29.13;;;22.02;;
57395;SDS011;43222;52.912;6.940;2022-11-23T01:19:18;34.30;;;22.08;;
57395;SDS011;43222;52.912;6.940;2022-11-23T01:21:44;31.38;;;21.35;;
57395;SDS011;43222;52.912;6.940;2022-11-23T01:24:16;30.80;;;21.75;;
57395;SDS011;43222;52.912;6.940;2022-11-23T01:26:42;29.05;;;20.80;;
57395;SDS011;43222;52.912;6.940;2022-11-23T01:29:08;31.45;;;22.02;;
57395;SDS011;43222;52.912;6.940;2022-11-23T01:31:35;31.40;;;21.38;;
57395;SDS011;43222;52.912;6.940;2022-11-23T01:34:01;34.97;;;21.70;;
57395;SDS011;43222;52.912;6.940;2022-11-23T01:36:29;27.50;;;21.75;;
57395;SDS011;43222;52.912;6.940;2022-11-23T01:38:56;30.33;;;21.20;;
57395;SDS011;43222;52.912;6.940;2022-11-23T01:41:23;31.90;;;21.50;;
57395;SDS011;43222;52.912;6.940;2022-11-23T01:43:49;31.33;;;22.05;;
57395;SDS011;43222;52.912;6.940;2022-11-23T01:46:16;30.00;;;21.77;;
57395;SDS011;43222;52.912;6.940;2022-11-23T01:51:12;28.15;;;21.10;;
57395;SDS011;43222;52.912;6.940;2022-11-23T01:53:39;29.20;;;21.20;;
57395;SDS011;43222;52.912;6.940;2022-11-23T01:56:06;26.25;;;21.05;;
57395;SDS011;43222;52.912;6.940;2022-11-23T01:58:34;28.83;;;20.98;;
57395;SDS011;43222;52.912;6.940;2022-11-23T02:01:02;30.70;;;21.08;;
57395;SDS011;43222;52.912;6.940;2022-11-23T02:03:28;28.05;;;21.85;;
57395;SDS011;43222;52.912;6.940;2022-11-23T02:05:56;34.22;;;22.52;;
57395;SDS011;43222;52.912;6.940;2022-11-23T02:08:25;28.25;;;22.00;;
57395;SDS011;43222;52.912;6.940;2022-11-23T02:10:52;27.45;;;20.75;;
57395;SDS011;43222;52.912;6.940;2022-11-23T02:13:18;28.20;;;21.27;;
57395;SDS011;43222;52.912;6.940;2022-11-23T02:15:45;26.98;;;21.08;;
57395;SDS011;43222;52.912;6.940;2022-11-23T02:18:12;27.23;;;21.00;;
57395;SDS011;43222;52.912;6.940;2022-11-23T02:20:40;28.23;;;21.83;;
57395;SDS011;43222;52.912;6.940;2022-11-23T02:26:01;25.42;;;21.08;;
57395;SDS011;43222;52.912;6.940;2022-11-23T02:28:31;27.23;;;20.85;;
57395;SDS011;43222;52.912;6.940;2022-11-23T02:30:58;26.35;;;20.27;;
57395;SDS011;43222;52.912;6.940;2022-11-23T02:33:25;25.15;;;21.23;;
57395;SDS011;43222;52.912;6.940;2022-11-23T02:35:53;28.80;;;20.52;;
57395;SDS011;43222;52.912;6.940;2022-11-23T02:38:19;27.75;;;20.45;;
57395;SDS011;43222;52.912;6.940;2022-11-23T02:40:46;27.52;;;21.80;;
57395;SDS011;43222;52.912;6.940;2022-11-23T02:43:12;26.77;;;20.25;;
57395;SDS011;43222;52.912;6.940;2022-11-23T02:48:11;28.50;;;20.65;;
57395;SDS011;43222;52.912;6.940;2022-11-23T02:50:37;26.83;;;20.73;;
57395;SDS011;43222;52.912;6.940;2022-11-23T02:53:03;26.52;;;21.80;;
57395;SDS011;43222;52.912;6.940;2022-11-23T02:55:29;25.60;;;21.17;;
57395;SDS011;43222;52.912;6.940;2022-11-23T02:57:55;30.52;;;21.13;;
57395;SDS011;43222;52.912;6.940;2022-11-23T03:00:21;31.10;;;21.52;;
57395;SDS011;43222;52.912;6.940;2022-11-23T03:02:47;25.30;;;20.38;;
57395;SDS011;43222;52.912;6.940;2022-11-23T03:05:13;25.45;;;19.58;;
57395;SDS011;43222;52.912;6.940;2022-11-23T03:07:39;28.25;;;20.17;;
57395;SDS011;43222;52.912;6.940;2022-11-23T03:10:05;24.55;;;19.58;;
57395;SDS011;43222;52.912;6.940;2022-11-23T03:12:32;25.88;;;18.77;;
57395;SDS011;43222;52.912;6.940;2022-11-23T03:14:58;27.35;;;19.30;;
57395;SDS011;43222;52.912;6.940;2022-11-23T03:17:24;26.38;;;19.35;;
57395;SDS011;43222;52.912;6.940;2022-11-23T03:19:51;25.48;;;19.33;;
57395;SDS011;43222;52.912;6.940;2022-11-23T03:22:17;27.27;;;19.30;;
57395;SDS011;43222;52.912;6.940;2022-11-23T03:24:43;26.40;;;19.73;;
57395;SDS011;43222;52.912;6.940;2022-11-23T03:27:09;23.27;;;17.13;;
57395;SDS011;43222;52.912;6.940;2022-11-23T03:29:35;30.45;;;19.38;;
57395;SDS011;43222;52.912;6.940;2022-11-23T03:32:01;24.90;;;18.30;;
57395;SDS011;43222;52.912;6.940;2022-11-23T03:34:28;24.08;;;17.45;;
57395;SDS011;43222;52.912;6.940;2022-11-23T03:36:54;26.50;;;19.13;;
57395;SDS011;43222;52.912;6.940;2022-11-23T03:39:20;23.58;;;17.55;;
57395;SDS011;43222;52.912;6.940;2022-11-23T03:41:46;25.58;;;17.73;;
57395;SDS011;43222;52.912;6.940;2022-11-23T03:44:12;23.05;;;17.77;;
57395;SDS011;43222;52.912;6.940;2022-11-23T03:46:38;25.23;;;17.67;;
57395;SDS011;43222;52.912;6.940;2022-11-23T03:49:04;26.95;;;18.42;;
57395;SDS011;43222;52.912;6.940;2022-11-23T03:51:30;25.63;;;17.30;;
57395;SDS011;43222;52.912;6.940;2022-11-23T03:53:56;27.85;;;17.30;;
57395;SDS011;43222;52.912;6.940;2022-11-23T03:56:22;24.85;;;18.20;;
57395;SDS011;43222;52.912;6.940;2022-11-23T03:58:48;27.48;;;18.48;;
57395;SDS011;43222;52.912;6.940;2022-11-23T04:01:14;25.65;;;18.80;;
57395;SDS011;43222;52.912;6.940;2022-11-23T04:03:40;33.72;;;19.85;;
57395;SDS011;43222;52.912;6.940;2022-11-23T04:06:06;29.27;;;18.92;;
57395;SDS011;43222;52.912;6.940;2022-11-23T04:08:32;24.55;;;18.33;;
57395;SDS011;43222;52.912;6.940;2022-11-23T04:10:58;33.55;;;18.40;;
57395;SDS011;43222;52.912;6.940;2022-11-23T04:13:25;25.63;;;18.73;;
57395;SDS011;43222;52.912;6.940;2022-11-23T04:15:51;28.33;;;18.92;;
57395;SDS011;43222;52.912;6.940;2022-11-23T04:18:17;28.35;;;18.80;;
57395;SDS011;43222;52.912;6.940;2022-11-23T04:20:43;34.60;;;19.20;;
57395;SDS011;43222;52.912;6.940;2022-11-23T04:23:09;26.05;;;18.90;;
57395;SDS011;43222;52.912;6.940;2022-11-23T04:25:35;27.02;;;18.45;;
57395;SDS011;43222;52.912;6.940;2022-11-23T04:28:01;29.70;;;19.15;;
57395;SDS011;43222;52.912;6.940;2022-11-23T04:30:27;30.60;;;19.65;;
57395;SDS011;43222;52.912;6.940;2022-11-23T04:32:53;33.72;;;20.10;;
57395;SDS011;43222;52.912;6.940;2022-11-23T04:35:19;29.27;;;19.35;;
57395;SDS011;43222;52.912;6.940;2022-11-23T04:37:46;34.90;;;20.33;;
57395;SDS011;43222;52.912;6.940;2022-11-23T04:40:12;33.67;;;19.88;;
57395;SDS011;43222;52.912;6.940;2022-11-23T04:42:38;32.40;;;19.98;;
57395;SDS011;43222;52.912;6.940;2022-11-23T04:45:08;33.15;;;20.27;;
57395;SDS011;43222;52.912;6.940;2022-11-23T04:47:35;33.07;;;18.73;;
57395;SDS011;43222;52.912;6.940;2022-11-23T04:50:01;34.47;;;18.95;;
57395;SDS011;43222;52.912;6.940;2022-11-23T04:52:27;34.50;;;19.85;;
57395;SDS011;43222;52.912;6.940;2022-11-23T04:54:53;31.88;;;19.35;;
57395;SDS011;43222;52.912;6.940;2022-11-23T04:57:20;33.67;;;19.13;;
57395;SDS011;43222;52.912;6.940;2022-11-23T04:59:46;30.42;;;19.38;;
57395;SDS011;43222;52.912;6.940;2022-11-23T05:02:12;34.85;;;19.08;;
57395;SDS011;43222;52.912;6.940;2022-11-23T05:04:38;28.95;;;18.83;;
57395;SDS011;43222;52.912;6.940;2022-11-23T05:07:04;38.33;;;19.48;;
57395;SDS011;43222;52.912;6.940;2022-11-23T05:09:30;34.55;;;19.92;;
57395;SDS011;43222;52.912;6.940;2022-11-23T05:11:57;32.88;;;19.55;;
57395;SDS011;43222;52.912;6.940;2022-11-23T05:14:23;34.90;;;20.58;;
57395;SDS011;43222;52.912;6.940;2022-11-23T05:16:49;34.65;;;19.58;;
57395;SDS011;43222;52.912;6.940;2022-11-23T05:19:15;33.67;;;19.20;;
57395;SDS011;43222;52.912;6.940;2022-11-23T05:21:41;36.10;;;19.42;;
57395;SDS011;43222;52.912;6.940;2022-11-23T05:24:07;32.33;;;20.95;;
57395;SDS011;43222;52.912;6.940;2022-11-23T05:26:33;38.70;;;19.02;;
57395;SDS011;43222;52.912;6.940;2022-11-23T05:28:59;29.95;;;18.45;;
57395;SDS011;43222;52.912;6.940;2022-11-23T05:31:25;35.35;;;18.90;;
57395;SDS011;43222;52.912;6.940;2022-11-23T05:33:51;40.08;;;19.60;;
57395;SDS011;43222;52.912;6.940;2022-11-23T05:36:17;34.92;;;19.60;;
57395;SDS011;43222;52.912;6.940;2022-11-23T05:38:43;32.13;;;18.25;;
57395;SDS011;43222;52.912;6.940;2022-11-23T05:41:09;36.30;;;18.40;;
57395;SDS011;43222;52.912;6.940;2022-11-23T05:43:35;35.00;;;17.58;;
57395;SDS011;43222;52.912;6.940;2022-11-23T05:46:02;31.92;;;18.58;;
57395;SDS011;43222;52.912;6.940;2022-11-23T05:48:28;28.45;;;16.23;;
57395;SDS011;43222;52.912;6.940;2022-11-23T05:50:54;24.73;;;15.77;;
57395;SDS011;43222;52.912;6.940;2022-11-23T05:53:20;33.00;;;16.95;;
57395;SDS011;43222;52.912;6.940;2022-11-23T05:55:46;25.48;;;15.43;;
57395;SDS011;43222;52.912;6.940;2022-11-23T05:58:12;26.85;;;15.15;;
57395;SDS011;43222;52.912;6.940;2022-11-23T06:00:38;26.65;;;15.40;;
57395;SDS011;43222;52.912;6.940;2022-11-23T06:03:05;25.80;;;15.65;;
57395;SDS011;43222;52.912;6.940;2022-11-23T06:05:31;27.90;;;14.88;;
57395;SDS011;43222;52.912;6.940;2022-11-23T06:07:57;27.73;;;15.05;;
57395;SDS011;43222;52.912;6.940;2022-11-23T06:10:23;27.02;;;13.65;;
57395;SDS011;43222;52.912;6.940;2022-11-23T06:12:49;25.52;;;13.85;;
57395;SDS011;43222;52.912;6.940;2022-11-23T06:15:16;29.60;;;14.40;;
57395;SDS011;43222;52.912;6.940;2022-11-23T06:17:43;23.98;;;13.38;;
57395;SDS011;43222;52.912;6.940;2022-11-23T06:20:09;29.35;;;12.88;;
57395;SDS011;43222;52.912;6.940;2022-11-23T06:22:35;21.70;;;12.45;;
57395;SDS011;43222;52.912;6.940;2022-11-23T06:25:01;27.30;;;12.05;;
57395;SDS011;43222;52.912;6.940;2022-11-23T06:27:27;21.83;;;10.27;;
57395;SDS011;43222;52.912;6.940;2022-11-23T06:29:53;21.67;;;10.80;;
57395;SDS011;43222;52.912;6.940;2022-11-23T06:32:19;24.02;;;10.02;;
57395;SDS011;43222;52.912;6.940;2022-11-23T06:34:45;25.08;;;10.18;;
57395;SDS011;43222;52.912;6.940;2022-11-23T06:37:11;24.88;;;9.82;;
57395;SDS011;43222;52.912;6.940;2022-11-23T06:39:37;24.13;;;10.20;;
57395;SDS011;43222;52.912;6.940;2022-11-23T06:42:04;22.58;;;10.75;;
57395;SDS011;43222;52.912;6.940;2022-11-23T06:44:30;23.35;;;10.50;;
57395;SDS011;43222;52.912;6.940;2022-11-23T06:46:56;23.83;;;10.18;;
57395;SDS011;43222;52.912;6.940;2022-11-23T06:49:22;23.80;;;10.07;;
57395;SDS011;43222;52.912;6.940;2022-11-23T06:51:49;26.48;;;9.73;;
57395;SDS011;43222;52.912;6.940;2022-11-23T06:54:15;31.60;;;9.05;;
57395;SDS011;43222;52.912;6.940;2022-11-23T06:56:42;20.55;;;8.45;;
57395;SDS011;43222;52.912;6.940;2022-11-23T06:59:08;21.88;;;8.15;;
57395;SDS011;43222;52.912;6.940;2022-11-23T07:01:34;21.40;;;7.68;;
57395;SDS011;43222;52.912;6.940;2022-11-23T07:04:00;23.02;;;8.80;;
57395;SDS011;43222;52.912;6.940;2022-11-23T07:06:26;22.45;;;8.73;;
57395;SDS011;43222;52.912;6.940;2022-11-23T07:08:53;27.45;;;12.50;;
57395;SDS011;43222;52.912;6.940;2022-11-23T07:11:19;32.60;;;13.98;;
57395;SDS011;43222;52.912;6.940;2022-11-23T07:13:45;30.00;;;13.50;;
57395;SDS011;43222;52.912;6.940;2022-11-23T07:16:12;33.90;;;13.07;;
57395;SDS011;43222;52.912;6.940;2022-11-23T07:18:38;24.27;;;11.85;;
57395;SDS011;43222;52.912;6.940;2022-11-23T07:21:04;30.42;;;11.38;;
57395;SDS011;43222;52.912;6.940;2022-11-23T07:23:31;21.95;;;10.35;;
57395;SDS011;43222;52.912;6.940;2022-11-23T07:25:57;25.77;;;10.35;;
57395;SDS011;43222;52.912;6.940;2022-11-23T07:28:23;24.63;;;9.60;;
57395;SDS011;43222;52.912;6.940;2022-11-23T07:30:49;23.02;;;9.20;;
57395;SDS011;43222;52.912;6.940;2022-11-23T07:33:18;24.30;;;9.82;;
57395;SDS011;43222;52.912;6.940;2022-11-23T07:35:44;22.02;;;9.52;;
57395;SDS011;43222;52.912;6.940;2022-11-23T07:38:11;26.60;;;9.75;;
57395;SDS011;43222;52.912;6.940;2022-11-23T07:40:37;23.35;;;9.60;;
57395;SDS011;43222;52.912;6.940;2022-11-23T07:43:04;26.42;;;10.25;;
57395;SDS011;43222;52.912;6.940;2022-11-23T07:45:30;20.67;;;9.95;;
57395;SDS011;43222;52.912;6.940;2022-11-23T07:47:57;22.02;;;10.18;;
57395;SDS011;43222;52.912;6.940;2022-11-23T07:50:24;26.35;;;10.60;;
57395;SDS011;43222;52.912;6.940;2022-11-23T07:52:50;20.92;;;9.73;;
57395;SDS011;43222;52.912;6.940;2022-11-23T07:55:16;27.08;;;10.98;;
57395;SDS011;43222;52.912;6.940;2022-11-23T07:57:42;27.27;;;11.68;;
57395;SDS011;43222;52.912;6.940;2022-11-23T08:00:08;25.33;;;11.05;;
57395;SDS011;43222;52.912;6.940;2022-11-23T08:02:34;25.65;;;11.43;;
57395;SDS011;43222;52.912;6.940;2022-11-23T08:05:00;26.90;;;11.68;;
57395;SDS011;43222;52.912;6.940;2022-11-23T08:07:26;27.38;;;11.38;;
57395;SDS011;43222;52.912;6.940;2022-11-23T08:09:52;26.60;;;10.57;;
57395;SDS011;43222;52.912;6.940;2022-11-23T08:12:18;21.67;;;10.48;;
57395;SDS011;43222;52.912;6.940;2022-11-23T08:14:45;26.30;;;10.68;;
57395;SDS011;43222;52.912;6.940;2022-11-23T08:17:11;23.67;;;9.57;;
57395;SDS011;43222;52.912;6.940;2022-11-23T08:19:37;20.98;;;9.57;;
57395;SDS011;43222;52.912;6.940;2022-11-23T08:22:03;18.50;;;8.98;;
57395;SDS011;43222;52.912;6.940;2022-11-23T08:24:29;26.77;;;9.38;;
57395;SDS011;43222;52.912;6.940;2022-11-23T08:26:55;23.50;;;9.02;;
57395;SDS011;43222;52.912;6.940;2022-11-23T08:29:21;22.38;;;9.40;;
57395;SDS011;43222;52.912;6.940;2022-11-23T08:31:47;20.42;;;8.60;;
57395;SDS011;43222;52.912;6.940;2022-11-23T08:34:14;22.85;;;9.18;;
57395;SDS011;43222;52.912;6.940;2022-11-23T08:36:41;23.33;;;8.93;;
57395;SDS011;43222;52.912;6.940;2022-11-23T08:39:08;27.38;;;8.45;;
57395;SDS011;43222;52.912;6.940;2022-11-23T08:41:35;17.17;;;8.18;;
57395;SDS011;43222;52.912;6.940;2022-11-23T08:44:02;27.80;;;8.68;;
57395;SDS011;43222;52.912;6.940;2022-11-23T08:46:28;21.75;;;8.02;;
57395;SDS011;43222;52.912;6.940;2022-11-23T08:48:54;22.48;;;8.18;;
57395;SDS011;43222;52.912;6.940;2022-11-23T08:51:20;25.95;;;8.88;;
57395;SDS011;43222;52.912;6.940;2022-11-23T08:53:47;25.52;;;9.27;;
57395;SDS011;43222;52.912;6.940;2022-11-23T08:56:13;24.67;;;7.68;;
57395;SDS011;43222;52.912;6.940;2022-11-23T08:58:40;22.42;;;8.50;;
57395;SDS011;43222;52.912;6.940;2022-11-23T09:01:07;21.65;;;8.00;;
57395;SDS011;43222;52.912;6.940;2022-11-23T09:03:33;20.23;;;7.28;;
57395;SDS011;43222;52.912;6.940;2022-11-23T09:05:59;25.80;;;7.60;;
57395;SDS011;43222;52.912;6.940;2022-11-23T09:08:25;20.48;;;7.55;;
57395;SDS011;43222;52.912;6.940;2022-11-23T09:10:51;22.67;;;7.40;;
57395;SDS011;43222;52.912;6.940;2022-11-23T09:13:17;23.73;;;7.05;;
57395;SDS011;43222;52.912;6.940;2022-11-23T09:15:44;20.98;;;6.70;;
57395;SDS011;43222;52.912;6.940;2022-11-23T09:18:10;21.45;;;6.65;;
57395;SDS011;43222;52.912;6.940;2022-11-23T09:20:38;18.73;;;6.00;;
57395;SDS011;43222;52.912;6.940;2022-11-23T09:23:04;23.52;;;5.95;;
57395;SDS011;43222;52.912;6.940;2022-11-23T09:25:30;22.40;;;5.93;;
57395;SDS011;43222;52.912;6.940;2022-11-23T09:27:57;19.70;;;5.25;;
57395;SDS011;43222;52.912;6.940;2022-11-23T09:30:23;18.27;;;5.40;;
57395;SDS011;43222;52.912;6.940;2022-11-23T09:32:49;17.27;;;5.90;;
57395;SDS011;43222;52.912;6.940;2022-11-23T09:35:15;21.42;;;5.72;;
57395;SDS011;43222;52.912;6.940;2022-11-23T09:37:41;17.38;;;4.55;;
57395;SDS011;43222;52.912;6.940;2022-11-23T09:40:09;20.08;;;4.72;;
57395;SDS011;43222;52.912;6.940;2022-11-23T09:52:46;18.70;;;4.60;;
57395;SDS011;43222;52.912;6.940;2022-11-23T09:57:55;17.17;;;4.03;;
57395;SDS011;43222;52.912;6.940;2022-11-23T10:00:23;14.15;;;3.75;;
57395;SDS011;43222;52.912;6.940;2022-11-23T10:02:50;18.52;;;4.32;;
57395;SDS011;43222;52.912;6.940;2022-11-23T10:05:20;16.23;;;4.43;;
57395;SDS011;43222;52.912;6.940;2022-11-23T10:13:11;21.52;;;4.82;;
57395;SDS011;43222;52.912;6.940;2022-11-23T10:15:45;15.20;;;4.18;;
57395;SDS011;43222;52.912;6.940;2022-11-23T10:18:23;18.58;;;4.45;;
57395;SDS011;43222;52.912;6.940;2022-11-23T10:21:38;18.15;;;4.60;;
57395;SDS011;43222;52.912;6.940;2022-11-23T10:23:43;21.70;;;4.32;;
57395;SDS011;43222;52.912;6.940;2022-11-23T10:26:13;18.80;;;4.30;;
57395;SDS011;43222;52.912;6.940;2022-11-23T10:28:40;17.70;;;4.05;;
57395;SDS011;43222;52.912;6.940;2022-11-23T10:31:11;20.17;;;4.20;;
57395;SDS011;43222;52.912;6.940;2022-11-23T10:33:48;22.55;;;4.45;;
57395;SDS011;43222;52.912;6.940;2022-11-23T10:36:16;21.35;;;3.92;;
57395;SDS011;43222;52.912;6.940;2022-11-23T10:38:42;17.35;;;4.00;;
57395;SDS011;43222;52.912;6.940;2022-11-23T10:41:12;22.05;;;3.83;;
57395;SDS011;43222;52.912;6.940;2022-11-23T10:43:44;18.42;;;3.42;;
57395;SDS011;43222;52.912;6.940;2022-11-23T10:46:28;19.23;;;3.40;;
57395;SDS011;43222;52.912;6.940;2022-11-23T10:48:56;18.25;;;3.30;;
57395;SDS011;43222;52.912;6.940;2022-11-23T10:51:33;21.10;;;3.83;;
57395;SDS011;43222;52.912;6.940;2022-11-23T10:54:00;18.23;;;3.50;;
57395;SDS011;43222;52.912;6.940;2022-11-23T10:56:26;25.40;;;4.03;;
57395;SDS011;43222;52.912;6.940;2022-11-23T10:58:53;18.85;;;3.75;;
57395;SDS011;43222;52.912;6.940;2022-11-23T11:01:23;22.45;;;3.88;;
57395;SDS011;43222;52.912;6.940;2022-11-23T11:03:50;20.05;;;3.38;;
57395;SDS011;43222;52.912;6.940;2022-11-23T11:06:21;20.63;;;3.85;;
57395;SDS011;43222;52.912;6.940;2022-11-23T11:08:49;21.50;;;3.72;;
57395;SDS011;43222;52.912;6.940;2022-11-23T11:11:26;15.23;;;3.13;;
57395;SDS011;43222;52.912;6.940;2022-11-23T11:16:36;20.77;;;3.70;;
57395;SDS011;43222;52.912;6.940;2022-11-23T11:19:19;19.08;;;3.55;;
57395;SDS011;43222;52.912;6.940;2022-11-23T11:21:45;18.73;;;3.40;;
57395;SDS011;43222;52.912;6.940;2022-11-23T11:24:19;21.10;;;3.85;;
57395;SDS011;43222;52.912;6.940;2022-11-23T11:26:46;18.75;;;3.38;;
57395;SDS011;43222;52.912;6.940;2022-11-23T11:29:21;16.77;;;3.28;;
57395;SDS011;43222;52.912;6.940;2022-11-23T11:32:01;14.07;;;2.83;;
57395;SDS011;43222;52.912;6.940;2022-11-23T11:34:30;17.88;;;3.08;;
57395;SDS011;43222;52.912;6.940;2022-11-23T11:39:57;16.45;;;3.65;;
57395;SDS011;43222;52.912;6.940;2022-11-23T11:42:35;18.33;;;3.28;;
57395;SDS011;43222;52.912;6.940;2022-11-23T11:45:04;17.58;;;3.38;;
57395;SDS011;43222;52.912;6.940;2022-11-23T11:47:33;16.75;;;3.00;;
57395;SDS011;43222;52.912;6.940;2022-11-23T11:50:19;18.80;;;3.22;;
57395;SDS011;43222;52.912;6.940;2022-11-23T11:52:46;15.23;;;3.25;;
57395;SDS011;43222;52.912;6.940;2022-11-23T11:56:01;14.23;;;3.20;;
57395;SDS011;43222;52.912;6.940;2022-11-23T11:58:04;15.10;;;3.03;;
57395;SDS011;43222;52.912;6.940;2022-11-23T12:00:35;15.95;;;3.30;;
57395;SDS011;43222;52.912;6.940;2022-11-23T12:05:47;14.13;;;2.80;;
57395;SDS011;43222;52.912;6.940;2022-11-23T12:08:15;16.48;;;3.00;;
57395;SDS011;43222;52.912;6.940;2022-11-23T12:10:47;14.10;;;3.55;;
57395;SDS011;43222;52.912;6.940;2022-11-23T12:13:18;12.65;;;3.78;;
57395;SDS011;43222;52.912;6.940;2022-11-23T12:18:18;15.55;;;3.47;;
57395;SDS011;43222;52.912;6.940;2022-11-23T12:20:56;16.08;;;3.80;;
57395;SDS011;43222;52.912;6.940;2022-11-23T12:23:33;13.88;;;2.97;;
57395;SDS011;43222;52.912;6.940;2022-11-23T12:40:52;12.02;;;3.08;;
57395;SDS011;43222;52.912;6.940;2022-11-23T12:43:25;15.07;;;3.90;;
57395;SDS011;43222;52.912;6.940;2022-11-23T12:46:01;13.07;;;3.17;;
57395;SDS011;43222;52.912;6.940;2022-11-23T12:56:27;13.65;;;3.42;;
57395;SDS011;43222;52.912;6.940;2022-11-23T12:58:59;10.35;;;2.53;;
57395;SDS011;43222;52.912;6.940;2022-11-23T13:01:27;14.43;;;2.28;;
57395;SDS011;43222;52.912;6.940;2022-11-23T13:22:17;14.75;;;2.92;;
57395;SDS011;43222;52.912;6.940;2022-11-23T13:29:54;11.43;;;2.28;;
57395;SDS011;43222;52.912;6.940;2022-11-23T13:40:28;13.32;;;2.75;;
57395;SDS011;43222;52.912;6.940;2022-11-23T13:45:28;13.80;;;2.13;;
57395;SDS011;43222;52.912;6.940;2022-11-23T13:50:33;11.55;;;2.58;;
57395;SDS011;43222;52.912;6.940;2022-11-23T13:52:59;11.43;;;1.98;;
57395;SDS011;43222;52.912;6.940;2022-11-23T13:55:33;11.88;;;2.30;;
57395;SDS011;43222;52.912;6.940;2022-11-23T14:00:48;15.13;;;2.33;;
57395;SDS011;43222;52.912;6.940;2022-11-23T14:06:00;12.82;;;2.42;;
57395;SDS011;43222;52.912;6.940;2022-11-23T14:08:26;16.45;;;2.78;;
57395;SDS011;43222;52.912;6.940;2022-11-23T14:10:53;16.42;;;2.83;;
57395;SDS011;43222;52.912;6.940;2022-11-23T14:13:21;12.73;;;2.35;;
57395;SDS011;43222;52.912;6.940;2022-11-23T14:15:53;11.68;;;2.45;;
57395;SDS011;43222;52.912;6.940;2022-11-23T14:33:43;15.30;;;2.33;;
57395;SDS011;43222;52.912;6.940;2022-11-23T14:36:19;7.53;;;1.77;;
57395;SDS011;43222;52.912;6.940;2022-11-23T14:39:03;10.77;;;2.08;;
57395;SDS011;43222;52.912;6.940;2022-11-23T14:41:33;10.25;;;1.92;;
57395;SDS011;43222;52.912;6.940;2022-11-23T14:44:01;10.43;;;1.80;;
57395;SDS011;43222;52.912;6.940;2022-11-23T14:46:27;11.32;;;2.15;;
57395;SDS011;43222;52.912;6.940;2022-11-23T14:49:04;8.02;;;1.80;;
57395;SDS011;43222;52.912;6.940;2022-11-23T14:51:31;9.88;;;2.08;;
57395;SDS011;43222;52.912;6.940;2022-11-23T14:53:58;9.13;;;1.67;;
57395;SDS011;43222;52.912;6.940;2022-11-23T14:58:50;16.13;;;2.45;;
57395;SDS011;43222;52.912;6.940;2022-11-23T15:01:20;12.68;;;2.45;;
57395;SDS011;43222;52.912;6.940;2022-11-23T15:04:05;15.52;;;2.45;;
57395;SDS011;43222;52.912;6.940;2022-11-23T15:06:32;11.95;;;2.28;;
57395;SDS011;43222;52.912;6.940;2022-11-23T15:09:06;10.63;;;2.17;;
57395;SDS011;43222;52.912;6.940;2022-11-23T15:11:34;11.70;;;2.35;;
57395;SDS011;43222;52.912;6.940;2022-11-23T15:14:01;9.43;;;2.55;;
57395;SDS011;43222;52.912;6.940;2022-11-23T15:16:27;12.68;;;2.42;;
57395;SDS011;43222;52.912;6.940;2022-11-23T15:18:54;15.57;;;2.30;;
57395;SDS011;43222;52.912;6.940;2022-11-23T15:21:22;10.80;;;2.22;;
57395;SDS011;43222;52.912;6.940;2022-11-23T15:23:49;10.57;;;2.08;;
57395;SDS011;43222;52.912;6.940;2022-11-23T15:26:20;13.93;;;2.42;;
57395;SDS011;43222;52.912;6.940;2022-11-23T15:28:46;10.25;;;2.20;;
57395;SDS011;43222;52.912;6.940;2022-11-23T15:33:45;10.63;;;2.65;;
57395;SDS011;43222;52.912;6.940;2022-11-23T15:36:12;8.93;;;2.05;;
57395;SDS011;43222;52.912;6.940;2022-11-23T15:38:38;11.07;;;2.25;;
57395;SDS011;43222;52.912;6.940;2022-11-23T15:41:04;13.60;;;2.30;;
57395;SDS011;43222;52.912;6.940;2022-11-23T15:43:30;11.43;;;2.42;;
57395;SDS011;43222;52.912;6.940;2022-11-23T15:46:00;13.65;;;2.65;;
57395;SDS011;43222;52.912;6.940;2022-11-23T15:48:28;13.10;;;2.33;;
57395;SDS011;43222;52.912;6.940;2022-11-23T15:51:00;11.57;;;2.42;;
57395;SDS011;43222;52.912;6.940;2022-11-23T15:53:27;14.18;;;2.40;;
57395;SDS011;43222;52.912;6.940;2022-11-23T15:55:54;12.05;;;2.65;;
57395;SDS011;43222;52.912;6.940;2022-11-23T15:58:23;11.80;;;2.28;;
57395;SDS011;43222;52.912;6.940;2022-11-23T16:00:50;10.43;;;1.98;;
57395;SDS011;43222;52.912;6.940;2022-11-23T16:03:19;8.93;;;2.53;;
57395;SDS011;43222;52.912;6.940;2022-11-23T16:06:06;10.90;;;2.20;;
57395;SDS011;43222;52.912;6.940;2022-11-23T16:08:32;12.52;;;2.58;;
57395;SDS011;43222;52.912;6.940;2022-11-23T16:10:59;11.02;;;2.10;;
57395;SDS011;43222;52.912;6.940;2022-11-23T16:13:37;10.00;;;2.50;;
57395;SDS011;43222;52.912;6.940;2022-11-23T16:16:04;14.50;;;2.67;;
57395;SDS011;43222;52.912;6.940;2022-11-23T16:18:32;8.45;;;1.77;;
57395;SDS011;43222;52.912;6.940;2022-11-23T16:20:59;11.02;;;2.00;;
57395;SDS011;43222;52.912;6.940;2022-11-23T16:25:56;10.38;;;2.10;;
57395;SDS011;43222;52.912;6.940;2022-11-23T16:30:52;11.07;;;1.92;;
57395;SDS011;43222;52.912;6.940;2022-11-23T16:33:19;12.45;;;2.30;;
57395;SDS011;43222;52.912;6.940;2022-11-23T16:35:45;9.80;;;2.10;;
57395;SDS011;43222;52.912;6.940;2022-11-23T16:38:12;13.43;;;2.72;;